McClellandtown, Pennsylvania
Current Conditions -  °F | °C
As of 11:05 PM on Tuesday 21 Oct 2014 (Local Time) from KMGW Reporting Station
Overcast Overcast  
Wind Chill: 46°   Ceiling: 900
Heat Index: 48°   Visibility: 8mi
Dew Point: 44°   Wind: 5mph
Humidity: 86%   Direction: 310°NW
Pressure: 30.04"   Gusts: NA
Location:  39.89°N, 79.87°W
Report Text: KMGW 220305Z AUTO 31004KT 8SM BKN009 OVC013 09/07 A3004 RMK AO2 CIG 006V011 T00890067 TSNO
Loading
Personal Weather Stations






























Interactive Weather Map
Tropical Storm Tracking
New forecast layout! Learn more

10-Day Weather Forecast

Advertisements
Track Severe Weather on mobile